sensor_id;sensor_type;location;lat;lon;timestamp;P1;durP1;ratioP1;P2;durP2;ratioP2
20334;SDS011;10325;51.468;5.804;2023-04-06T00:02:18;2.80;;;2.47;;
20334;SDS011;10325;51.468;5.804;2023-04-06T00:05:02;5.17;;;2.87;;
20334;SDS011;10325;51.468;5.804;2023-04-06T00:07:33;3.87;;;2.07;;
20334;SDS011;10325;51.468;5.804;2023-04-06T00:10:05;3.70;;;2.33;;
20334;SDS011;10325;51.468;5.804;2023-04-06T00:12:33;3.53;;;2.10;;
20334;SDS011;10325;51.468;5.804;2023-04-06T00:15:03;4.30;;;2.40;;
20334;SDS011;10325;51.468;5.804;2023-04-06T00:17:36;3.10;;;2.03;;
20334;SDS011;10325;51.468;5.804;2023-04-06T00:20:07;3.07;;;1.93;;
20334;SDS011;10325;51.468;5.804;2023-04-06T00:22:37;2.87;;;2.33;;
20334;SDS011;10325;51.468;5.804;2023-04-06T00:25:05;3.50;;;2.23;;
20334;SDS011;10325;51.468;5.804;2023-04-06T00:27:37;2.90;;;1.90;;
20334;SDS011;10325;51.468;5.804;2023-04-06T00:30:08;2.50;;;2.30;;
20334;SDS011;10325;51.468;5.804;2023-04-06T00:32:38;2.93;;;2.57;;
20334;SDS011;10325;51.468;5.804;2023-04-06T00:35:08;3.13;;;2.40;;
20334;SDS011;10325;51.468;5.804;2023-04-06T00:37:38;3.60;;;2.30;;
20334;SDS011;10325;51.468;5.804;2023-04-06T00:40:10;3.07;;;2.57;;
20334;SDS011;10325;51.468;5.804;2023-04-06T00:42:41;2.80;;;2.50;;
20334;SDS011;10325;51.468;5.804;2023-04-06T00:45:13;4.00;;;2.47;;
20334;SDS011;10325;51.468;5.804;2023-04-06T00:47:43;2.83;;;2.20;;
20334;SDS011;10325;51.468;5.804;2023-04-06T00:50:16;3.00;;;2.33;;
20334;SDS011;10325;51.468;5.804;2023-04-06T00:52:47;2.20;;;2.00;;
20334;SDS011;10325;51.468;5.804;2023-04-06T00:55:18;3.27;;;2.13;;
20334;SDS011;10325;51.468;5.804;2023-04-06T00:57:50;2.50;;;2.10;;
20334;SDS011;10325;51.468;5.804;2023-04-06T01:00:19;3.20;;;2.37;;
20334;SDS011;10325;51.468;5.804;2023-04-06T01:02:51;3.03;;;2.20;;
20334;SDS011;10325;51.468;5.804;2023-04-06T01:05:24;3.23;;;2.50;;
20334;SDS011;10325;51.468;5.804;2023-04-06T01:07:56;3.30;;;1.97;;
20334;SDS011;10325;51.468;5.804;2023-04-06T01:10:28;2.30;;;1.77;;
20334;SDS011;10325;51.468;5.804;2023-04-06T01:12:58;4.13;;;2.10;;
20334;SDS011;10325;51.468;5.804;2023-04-06T01:15:27;3.33;;;2.07;;
20334;SDS011;10325;51.468;5.804;2023-04-06T01:17:59;2.53;;;2.13;;
20334;SDS011;10325;51.468;5.804;2023-04-06T01:20:31;2.50;;;1.93;;
20334;SDS011;10325;51.468;5.804;2023-04-06T01:23:04;2.30;;;1.87;;
20334;SDS011;10325;51.468;5.804;2023-04-06T01:25:36;3.07;;;2.30;;
20334;SDS011;10325;51.468;5.804;2023-04-06T01:28:07;2.03;;;1.87;;
20334;SDS011;10325;51.468;5.804;2023-04-06T01:30:38;3.40;;;2.30;;
20334;SDS011;10325;51.468;5.804;2023-04-06T01:33:11;2.60;;;2.20;;
20334;SDS011;10325;51.468;5.804;2023-04-06T01:35:45;3.60;;;2.30;;
20334;SDS011;10325;51.468;5.804;2023-04-06T01:38:17;2.53;;;2.27;;
20334;SDS011;10325;51.468;5.804;2023-04-06T01:40:50;3.33;;;2.77;;
20334;SDS011;10325;51.468;5.804;2023-04-06T01:43:20;2.40;;;2.20;;
20334;SDS011;10325;51.468;5.804;2023-04-06T01:45:50;2.30;;;2.10;;
20334;SDS011;10325;51.468;5.804;2023-04-06T01:48:23;2.23;;;2.00;;
20334;SDS011;10325;51.468;5.804;2023-04-06T01:50:51;2.83;;;2.20;;
20334;SDS011;10325;51.468;5.804;2023-04-06T01:53:23;2.90;;;2.27;;
20334;SDS011;10325;51.468;5.804;2023-04-06T01:55:59;3.13;;;2.30;;
20334;SDS011;10325;51.468;5.804;2023-04-06T01:58:31;3.07;;;2.40;;
20334;SDS011;10325;51.468;5.804;2023-04-06T02:00:58;2.20;;;2.00;;
20334;SDS011;10325;51.468;5.804;2023-04-06T02:03:28;2.17;;;1.97;;
20334;SDS011;10325;51.468;5.804;2023-04-06T02:06:00;1.90;;;1.80;;
20334;SDS011;10325;51.468;5.804;2023-04-06T02:08:34;3.27;;;2.20;;
20334;SDS011;10325;51.468;5.804;2023-04-06T02:11:04;2.80;;;2.27;;
20334;SDS011;10325;51.468;5.804;2023-04-06T02:13:31;2.80;;;2.10;;
20334;SDS011;10325;51.468;5.804;2023-04-06T02:16:03;3.17;;;2.33;;
20334;SDS011;10325;51.468;5.804;2023-04-06T02:18:33;2.70;;;2.00;;
20334;SDS011;10325;51.468;5.804;2023-04-06T02:21:07;2.17;;;1.97;;
20334;SDS011;10325;51.468;5.804;2023-04-06T02:23:36;2.87;;;2.10;;
20334;SDS011;10325;51.468;5.804;2023-04-06T02:26:07;2.97;;;1.97;;
20334;SDS011;10325;51.468;5.804;2023-04-06T02:28:38;2.77;;;2.00;;
20334;SDS011;10325;51.468;5.804;2023-04-06T02:31:10;2.17;;;1.90;;
20334;SDS011;10325;51.468;5.804;2023-04-06T02:33:45;3.10;;;2.07;;
20334;SDS011;10325;51.468;5.804;2023-04-06T02:36:15;3.47;;;2.47;;
20334;SDS011;10325;51.468;5.804;2023-04-06T02:38:49;2.83;;;2.20;;
20334;SDS011;10325;51.468;5.804;2023-04-06T02:41:18;2.70;;;2.20;;
20334;SDS011;10325;51.468;5.804;2023-04-06T02:43:49;2.30;;;2.10;;
20334;SDS011;10325;51.468;5.804;2023-04-06T02:46:21;3.13;;;2.73;;
20334;SDS011;10325;51.468;5.804;2023-04-06T02:48:50;2.30;;;2.10;;
20334;SDS011;10325;51.468;5.804;2023-04-06T02:51:19;2.13;;;1.93;;
20334;SDS011;10325;51.468;5.804;2023-04-06T02:54:06;2.80;;;2.10;;
20334;SDS011;10325;51.468;5.804;2023-04-06T02:56:47;2.77;;;2.33;;
20334;SDS011;10325;51.468;5.804;2023-04-06T02:59:19;2.67;;;2.47;;
20334;SDS011;10325;51.468;5.804;2023-04-06T03:01:52;2.73;;;2.53;;
20334;SDS011;10325;51.468;5.804;2023-04-06T03:04:21;2.37;;;1.90;;
20334;SDS011;10325;51.468;5.804;2023-04-06T03:06:54;2.40;;;2.17;;
20334;SDS011;10325;51.468;5.804;2023-04-06T03:09:27;3.07;;;2.27;;
20334;SDS011;10325;51.468;5.804;2023-04-06T03:11:57;2.20;;;2.00;;
20334;SDS011;10325;51.468;5.804;2023-04-06T03:14:27;3.63;;;2.43;;
20334;SDS011;10325;51.468;5.804;2023-04-06T03:16:57;3.27;;;2.50;;
20334;SDS011;10325;51.468;5.804;2023-04-06T03:19:29;3.37;;;2.80;;
20334;SDS011;10325;51.468;5.804;2023-04-06T03:22:04;2.70;;;2.23;;
20334;SDS011;10325;51.468;5.804;2023-04-06T03:24:34;3.27;;;2.60;;
20334;SDS011;10325;51.468;5.804;2023-04-06T03:27:06;2.77;;;2.50;;
20334;SDS011;10325;51.468;5.804;2023-04-06T03:29:37;2.77;;;2.30;;
20334;SDS011;10325;51.468;5.804;2023-04-06T03:32:05;3.27;;;2.33;;
20334;SDS011;10325;51.468;5.804;2023-04-06T03:34:35;4.73;;;2.80;;
20334;SDS011;10325;51.468;5.804;2023-04-06T03:37:10;3.00;;;2.37;;
20334;SDS011;10325;51.468;5.804;2023-04-06T03:39:38;2.20;;;2.00;;
20334;SDS011;10325;51.468;5.804;2023-04-06T03:42:10;3.27;;;2.90;;
20334;SDS011;10325;51.468;5.804;2023-04-06T03:44:41;4.47;;;2.60;;
20334;SDS011;10325;51.468;5.804;2023-04-06T03:47:10;3.50;;;2.40;;
20334;SDS011;10325;51.468;5.804;2023-04-06T03:49:39;3.00;;;2.50;;
20334;SDS011;10325;51.468;5.804;2023-04-06T03:52:11;3.20;;;2.80;;
20334;SDS011;10325;51.468;5.804;2023-04-06T03:54:40;3.13;;;2.67;;
20334;SDS011;10325;51.468;5.804;2023-04-06T03:57:14;3.03;;;2.73;;
20334;SDS011;10325;51.468;5.804;2023-04-06T03:59:44;3.13;;;2.83;;
20334;SDS011;10325;51.468;5.804;2023-04-06T04:02:15;3.60;;;3.30;;
20334;SDS011;10325;51.468;5.804;2023-04-06T04:04:47;2.87;;;2.57;;
20334;SDS011;10325;51.468;5.804;2023-04-06T04:07:14;3.30;;;2.97;;
20334;SDS011;10325;51.468;5.804;2023-04-06T04:09:45;4.37;;;2.90;;
20334;SDS011;10325;51.468;5.804;2023-04-06T04:12:16;3.23;;;2.93;;
20334;SDS011;10325;51.468;5.804;2023-04-06T04:14:45;3.27;;;2.60;;
20334;SDS011;10325;51.468;5.804;2023-04-06T04:17:16;3.43;;;2.87;;
20334;SDS011;10325;51.468;5.804;2023-04-06T04:19:44;3.90;;;2.80;;
20334;SDS011;10325;51.468;5.804;2023-04-06T04:22:22;3.53;;;3.23;;
20334;SDS011;10325;51.468;5.804;2023-04-06T04:24:53;3.77;;;3.40;;
20334;SDS011;10325;51.468;5.804;2023-04-06T04:27:24;2.90;;;2.57;;
20334;SDS011;10325;51.468;5.804;2023-04-06T04:29:55;4.13;;;3.23;;
20334;SDS011;10325;51.468;5.804;2023-04-06T04:32:24;3.87;;;3.10;;
20334;SDS011;10325;51.468;5.804;2023-04-06T04:34:58;3.30;;;2.73;;
20334;SDS011;10325;51.468;5.804;2023-04-06T04:37:29;3.83;;;3.37;;
20334;SDS011;10325;51.468;5.804;2023-04-06T04:40:00;3.47;;;3.07;;
20334;SDS011;10325;51.468;5.804;2023-04-06T04:42:33;4.37;;;3.30;;
20334;SDS011;10325;51.468;5.804;2023-04-06T04:45:05;4.57;;;4.00;;
20334;SDS011;10325;51.468;5.804;2023-04-06T04:47:35;3.43;;;3.10;;
20334;SDS011;10325;51.468;5.804;2023-04-06T04:50:05;4.00;;;3.00;;
20334;SDS011;10325;51.468;5.804;2023-04-06T04:52:36;4.40;;;2.97;;
20334;SDS011;10325;51.468;5.804;2023-04-06T04:55:05;4.47;;;4.07;;
20334;SDS011;10325;51.468;5.804;2023-04-06T04:57:37;3.40;;;3.10;;
20334;SDS011;10325;51.468;5.804;2023-04-06T05:00:05;3.63;;;3.33;;
20334;SDS011;10325;51.468;5.804;2023-04-06T05:02:37;3.63;;;3.33;;
20334;SDS011;10325;51.468;5.804;2023-04-06T05:05:09;3.80;;;3.20;;
20334;SDS011;10325;51.468;5.804;2023-04-06T05:07:41;3.50;;;3.20;;
20334;SDS011;10325;51.468;5.804;2023-04-06T05:10:10;4.63;;;3.83;;
20334;SDS011;10325;51.468;5.804;2023-04-06T05:12:38;4.73;;;4.30;;
20334;SDS011;10325;51.468;5.804;2023-04-06T05:15:09;4.73;;;4.23;;
20334;SDS011;10325;51.468;5.804;2023-04-06T05:17:40;6.87;;;4.17;;
20334;SDS011;10325;51.468;5.804;2023-04-06T05:20:07;4.93;;;4.23;;
20334;SDS011;10325;51.468;5.804;2023-04-06T05:22:36;5.90;;;4.57;;
20334;SDS011;10325;51.468;5.804;2023-04-06T05:25:07;6.30;;;4.60;;
20334;SDS011;10325;51.468;5.804;2023-04-06T05:27:36;11.83;;;6.53;;
20334;SDS011;10325;51.468;5.804;2023-04-06T05:30:06;19.20;;;8.37;;
20334;SDS011;10325;51.468;5.804;2023-04-06T05:32:37;23.53;;;9.97;;
20334;SDS011;10325;51.468;5.804;2023-04-06T05:35:11;21.67;;;10.17;;
20334;SDS011;10325;51.468;5.804;2023-04-06T05:37:43;27.17;;;10.63;;
20334;SDS011;10325;51.468;5.804;2023-04-06T05:40:13;19.50;;;10.47;;
20334;SDS011;10325;51.468;5.804;2023-04-06T05:42:45;22.70;;;10.90;;
20334;SDS011;10325;51.468;5.804;2023-04-06T05:45:14;17.50;;;9.07;;
20334;SDS011;10325;51.468;5.804;2023-04-06T05:47:47;19.97;;;9.70;;
20334;SDS011;10325;51.468;5.804;2023-04-06T05:50:20;18.00;;;9.03;;
20334;SDS011;10325;51.468;5.804;2023-04-06T05:52:49;15.27;;;8.33;;
20334;SDS011;10325;51.468;5.804;2023-04-06T05:55:19;15.03;;;8.13;;
20334;SDS011;10325;51.468;5.804;2023-04-06T05:57:51;13.00;;;7.90;;
20334;SDS011;10325;51.468;5.804;2023-04-06T06:00:21;14.20;;;8.50;;
20334;SDS011;10325;51.468;5.804;2023-04-06T06:02:49;13.93;;;8.23;;
20334;SDS011;10325;51.468;5.804;2023-04-06T06:05:19;12.50;;;8.60;;
20334;SDS011;10325;51.468;5.804;2023-04-06T06:07:51;13.43;;;8.37;;
20334;SDS011;10325;51.468;5.804;2023-04-06T06:10:23;10.23;;;6.90;;
20334;SDS011;10325;51.468;5.804;2023-04-06T06:12:53;10.80;;;7.53;;
20334;SDS011;10325;51.468;5.804;2023-04-06T06:15:25;14.73;;;7.67;;
20334;SDS011;10325;51.468;5.804;2023-04-06T06:17:56;12.00;;;7.47;;
20334;SDS011;10325;51.468;5.804;2023-04-06T06:20:28;12.13;;;7.30;;
20334;SDS011;10325;51.468;5.804;2023-04-06T06:22:59;8.47;;;6.80;;
20334;SDS011;10325;51.468;5.804;2023-04-06T06:25:44;9.70;;;6.67;;
20334;SDS011;10325;51.468;5.804;2023-04-06T06:28:15;11.33;;;7.13;;
20334;SDS011;10325;51.468;5.804;2023-04-06T06:30:47;13.60;;;7.63;;
20334;SDS011;10325;51.468;5.804;2023-04-06T06:33:16;9.20;;;6.60;;
20334;SDS011;10325;51.468;5.804;2023-04-06T06:35:48;9.10;;;6.57;;
20334;SDS011;10325;51.468;5.804;2023-04-06T06:38:22;11.63;;;7.27;;
20334;SDS011;10325;51.468;5.804;2023-04-06T06:40:52;10.57;;;7.33;;
20334;SDS011;10325;51.468;5.804;2023-04-06T06:43:21;10.70;;;5.97;;
20334;SDS011;10325;51.468;5.804;2023-04-06T06:45:51;8.00;;;6.53;;
20334;SDS011;10325;51.468;5.804;2023-04-06T06:48:19;9.77;;;6.43;;
20334;SDS011;10325;51.468;5.804;2023-04-06T06:50:49;8.13;;;6.10;;
20334;SDS011;10325;51.468;5.804;2023-04-06T06:53:23;9.63;;;6.23;;
20334;SDS011;10325;51.468;5.804;2023-04-06T06:55:55;9.23;;;6.43;;
20334;SDS011;10325;51.468;5.804;2023-04-06T06:58:24;10.37;;;6.63;;
20334;SDS011;10325;51.468;5.804;2023-04-06T07:00:57;8.97;;;6.40;;
20334;SDS011;10325;51.468;5.804;2023-04-06T07:03:26;10.10;;;5.90;;
20334;SDS011;10325;51.468;5.804;2023-04-06T07:05:59;6.60;;;4.67;;
20334;SDS011;10325;51.468;5.804;2023-04-06T07:08:29;7.13;;;5.67;;
20334;SDS011;10325;51.468;5.804;2023-04-06T07:11:06;6.70;;;5.30;;
20334;SDS011;10325;51.468;5.804;2023-04-06T07:13:36;7.43;;;5.40;;
20334;SDS011;10325;51.468;5.804;2023-04-06T07:16:06;6.37;;;5.20;;
20334;SDS011;10325;51.468;5.804;2023-04-06T07:18:44;7.70;;;5.80;;
20334;SDS011;10325;51.468;5.804;2023-04-06T07:21:14;8.10;;;5.83;;
20334;SDS011;10325;51.468;5.804;2023-04-06T07:23:46;8.20;;;6.30;;
20334;SDS011;10325;51.468;5.804;2023-04-06T07:26:16;8.03;;;5.47;;
20334;SDS011;10325;51.468;5.804;2023-04-06T07:28:47;8.83;;;6.37;;
20334;SDS011;10325;51.468;5.804;2023-04-06T07:31:20;7.77;;;6.30;;
20334;SDS011;10325;51.468;5.804;2023-04-06T07:33:50;6.47;;;5.83;;
20334;SDS011;10325;51.468;5.804;2023-04-06T07:36:25;6.97;;;5.50;;
20334;SDS011;10325;51.468;5.804;2023-04-06T07:38:56;5.80;;;5.20;;
20334;SDS011;10325;51.468;5.804;2023-04-06T07:41:28;7.90;;;5.97;;
20334;SDS011;10325;51.468;5.804;2023-04-06T07:43:57;7.30;;;5.73;;
20334;SDS011;10325;51.468;5.804;2023-04-06T07:46:31;5.83;;;4.93;;
20334;SDS011;10325;51.468;5.804;2023-04-06T07:49:01;6.73;;;5.33;;
20334;SDS011;10325;51.468;5.804;2023-04-06T07:51:35;7.17;;;5.70;;
20334;SDS011;10325;51.468;5.804;2023-04-06T07:54:07;6.87;;;6.00;;
20334;SDS011;10325;51.468;5.804;2023-04-06T07:56:38;6.03;;;4.90;;
20334;SDS011;10325;51.468;5.804;2023-04-06T07:59:06;7.00;;;5.60;;
20334;SDS011;10325;51.468;5.804;2023-04-06T08:01:38;8.03;;;5.77;;
20334;SDS011;10325;51.468;5.804;2023-04-06T08:04:07;6.80;;;5.67;;
20334;SDS011;10325;51.468;5.804;2023-04-06T08:06:40;7.53;;;5.90;;
20334;SDS011;10325;51.468;5.804;2023-04-06T08:09:13;6.97;;;6.20;;
20334;SDS011;10325;51.468;5.804;2023-04-06T08:11:44;7.10;;;5.37;;
20334;SDS011;10325;51.468;5.804;2023-04-06T08:14:14;6.30;;;5.70;;
20334;SDS011;10325;51.468;5.804;2023-04-06T08:16:45;6.40;;;5.30;;
20334;SDS011;10325;51.468;5.804;2023-04-06T08:19:15;5.03;;;4.53;;
20334;SDS011;10325;51.468;5.804;2023-04-06T08:21:45;7.60;;;5.43;;
20334;SDS011;10325;51.468;5.804;2023-04-06T08:24:15;6.23;;;4.97;;
20334;SDS011;10325;51.468;5.804;2023-04-06T08:26:46;5.30;;;4.80;;
20334;SDS011;10325;51.468;5.804;2023-04-06T08:29:15;6.27;;;5.00;;
20334;SDS011;10325;51.468;5.804;2023-04-06T08:31:48;5.60;;;5.00;;
20334;SDS011;10325;51.468;5.804;2023-04-06T08:34:17;6.67;;;4.70;;
20334;SDS011;10325;51.468;5.804;2023-04-06T08:36:46;6.43;;;4.77;;
20334;SDS011;10325;51.468;5.804;2023-04-06T08:39:19;5.73;;;5.10;;
20334;SDS011;10325;51.468;5.804;2023-04-06T08:41:54;6.43;;;5.03;;
20334;SDS011;10325;51.468;5.804;2023-04-06T08:44:27;5.43;;;4.57;;
20334;SDS011;10325;51.468;5.804;2023-04-06T08:47:04;7.73;;;5.60;;
20334;SDS011;10325;51.468;5.804;2023-04-06T08:49:42;7.33;;;5.10;;
20334;SDS011;10325;51.468;5.804;2023-04-06T08:52:15;7.40;;;5.27;;
20334;SDS011;10325;51.468;5.804;2023-04-06T08:54:45;6.33;;;5.10;;
20334;SDS011;10325;51.468;5.804;2023-04-06T08:57:15;6.63;;;4.87;;
20334;SDS011;10325;51.468;5.804;2023-04-06T08:59:50;7.97;;;4.97;;
20334;SDS011;10325;51.468;5.804;2023-04-06T09:02:24;6.57;;;5.37;;
20334;SDS011;10325;51.468;5.804;2023-04-06T09:04:54;7.50;;;5.37;;
20334;SDS011;10325;51.468;5.804;2023-04-06T09:07:26;8.00;;;5.47;;
20334;SDS011;10325;51.468;5.804;2023-04-06T09:09:59;6.90;;;5.57;;
20334;SDS011;10325;51.468;5.804;2023-04-06T09:12:30;6.80;;;5.63;;
20334;SDS011;10325;51.468;5.804;2023-04-06T09:15:00;7.47;;;5.43;;
20334;SDS011;10325;51.468;5.804;2023-04-06T09:17:33;7.47;;;6.07;;
20334;SDS011;10325;51.468;5.804;2023-04-06T09:20:04;8.60;;;5.10;;
20334;SDS011;10325;51.468;5.804;2023-04-06T09:22:37;9.20;;;5.97;;
20334;SDS011;10325;51.468;5.804;2023-04-06T09:25:25;6.97;;;4.90;;
20334;SDS011;10325;51.468;5.804;2023-04-06T09:28:03;6.87;;;4.90;;
20334;SDS011;10325;51.468;5.804;2023-04-06T09:30:47;6.80;;;5.23;;
20334;SDS011;10325;51.468;5.804;2023-04-06T09:33:24;5.77;;;5.00;;
20334;SDS011;10325;51.468;5.804;2023-04-06T09:35:57;8.07;;;6.03;;
20334;SDS011;10325;51.468;5.804;2023-04-06T09:38:28;7.03;;;5.73;;
20334;SDS011;10325;51.468;5.804;2023-04-06T09:40:59;7.23;;;5.93;;
20334;SDS011;10325;51.468;5.804;2023-04-06T09:43:31;7.10;;;5.60;;
20334;SDS011;10325;51.468;5.804;2023-04-06T09:46:02;9.13;;;6.23;;
20334;SDS011;10325;51.468;5.804;2023-04-06T09:48:30;7.40;;;5.63;;
20334;SDS011;10325;51.468;5.804;2023-04-06T09:51:03;6.00;;;4.90;;
20334;SDS011;10325;51.468;5.804;2023-04-06T09:53:41;7.00;;;6.23;;
20334;SDS011;10325;51.468;5.804;2023-04-06T09:56:20;9.20;;;5.63;;
20334;SDS011;10325;51.468;5.804;2023-04-06T09:59:05;5.97;;;4.97;;
20334;SDS011;10325;51.468;5.804;2023-04-06T10:01:50;6.73;;;5.53;;
20334;SDS011;10325;51.468;5.804;2023-04-06T10:04:40;8.73;;;5.50;;
20334;SDS011;10325;51.468;5.804;2023-04-06T10:07:17;6.50;;;5.07;;
20334;SDS011;10325;51.468;5.804;2023-04-06T10:09:47;7.03;;;5.23;;
20334;SDS011;10325;51.468;5.804;2023-04-06T10:12:17;6.57;;;5.43;;
20334;SDS011;10325;51.468;5.804;2023-04-06T10:14:51;6.73;;;5.40;;
20334;SDS011;10325;51.468;5.804;2023-04-06T10:17:23;8.57;;;5.63;;
20334;SDS011;10325;51.468;5.804;2023-04-06T10:20:06;6.23;;;5.63;;
20334;SDS011;10325;51.468;5.804;2023-04-06T10:22:48;9.23;;;5.47;;
20334;SDS011;10325;51.468;5.804;2023-04-06T10:25:33;7.00;;;5.03;;
20334;SDS011;10325;51.468;5.804;2023-04-06T10:28:08;6.87;;;5.43;;
20334;SDS011;10325;51.468;5.804;2023-04-06T10:30:45;5.60;;;5.00;;
20334;SDS011;10325;51.468;5.804;2023-04-06T10:33:17;8.37;;;4.90;;
20334;SDS011;10325;51.468;5.804;2023-04-06T10:35:48;6.07;;;4.87;;
20334;SDS011;10325;51.468;5.804;2023-04-06T10:38:19;6.13;;;4.80;;
20334;SDS011;10325;51.468;5.804;2023-04-06T10:40:53;7.07;;;5.50;;
20334;SDS011;10325;51.468;5.804;2023-04-06T10:43:40;6.37;;;5.17;;
20334;SDS011;10325;51.468;5.804;2023-04-06T10:46:15;6.53;;;5.10;;
20334;SDS011;10325;51.468;5.804;2023-04-06T10:49:13;8.70;;;5.03;;
20334;SDS011;10325;51.468;5.804;2023-04-06T10:51:42;5.63;;;4.60;;
20334;SDS011;10325;51.468;5.804;2023-04-06T10:54:11;6.80;;;4.50;;
20334;SDS011;10325;51.468;5.804;2023-04-06T10:56:44;4.60;;;3.93;;
20334;SDS011;10325;51.468;5.804;2023-04-06T10:59:12;7.17;;;4.60;;
20334;SDS011;10325;51.468;5.804;2023-04-06T11:01:44;6.07;;;4.53;;
20334;SDS011;10325;51.468;5.804;2023-04-06T11:04:18;6.67;;;4.20;;
20334;SDS011;10325;51.468;5.804;2023-04-06T11:06:51;7.23;;;4.23;;
20334;SDS011;10325;51.468;5.804;2023-04-06T11:09:25;4.87;;;4.10;;
20334;SDS011;10325;51.468;5.804;2023-04-06T11:12:37;5.83;;;3.83;;
20334;SDS011;10325;51.468;5.804;2023-04-06T11:15:10;7.40;;;4.43;;
20334;SDS011;10325;51.468;5.804;2023-04-06T11:17:39;7.13;;;4.00;;
20334;SDS011;10325;51.468;5.804;2023-04-06T11:20:09;5.00;;;3.37;;
20334;SDS011;10325;51.468;5.804;2023-04-06T11:22:47;4.20;;;3.80;;
20334;SDS011;10325;51.468;5.804;2023-04-06T11:25:18;4.90;;;3.73;;
20334;SDS011;10325;51.468;5.804;2023-04-06T11:27:50;5.40;;;3.90;;
20334;SDS011;10325;51.468;5.804;2023-04-06T11:30:22;3.90;;;3.50;;
20334;SDS011;10325;51.468;5.804;2023-04-06T11:32:59;4.40;;;4.00;;
20334;SDS011;10325;51.468;5.804;2023-04-06T11:35:33;3.83;;;3.37;;
20334;SDS011;10325;51.468;5.804;2023-04-06T11:38:04;3.60;;;3.10;;
20334;SDS011;10325;51.468;5.804;2023-04-06T11:40:34;5.13;;;3.40;;
20334;SDS011;10325;51.468;5.804;2023-04-06T11:43:05;3.37;;;3.00;;
20334;SDS011;10325;51.468;5.804;2023-04-06T11:45:44;3.70;;;3.23;;
20334;SDS011;10325;51.468;5.804;2023-04-06T11:48:20;5.30;;;3.17;;
20334;SDS011;10325;51.468;5.804;2023-04-06T11:50:58;4.53;;;2.90;;
20334;SDS011;10325;51.468;5.804;2023-04-06T11:53:47;3.30;;;2.80;;
20334;SDS011;10325;51.468;5.804;2023-04-06T11:56:23;3.93;;;3.00;;
20334;SDS011;10325;51.468;5.804;2023-04-06T11:59:01;3.30;;;2.97;;
20334;SDS011;10325;51.468;5.804;2023-04-06T12:01:33;4.37;;;3.50;;
20334;SDS011;10325;51.468;5.804;2023-04-06T12:04:14;3.07;;;2.37;;
20334;SDS011;10325;51.468;5.804;2023-04-06T12:06:46;2.70;;;2.10;;
20334;SDS011;10325;51.468;5.804;2023-04-06T12:09:16;3.07;;;2.70;;
20334;SDS011;10325;51.468;5.804;2023-04-06T12:11:49;3.10;;;2.80;;
20334;SDS011;10325;51.468;5.804;2023-04-06T12:14:16;3.33;;;2.57;;
20334;SDS011;10325;51.468;5.804;2023-04-06T12:16:45;3.53;;;2.60;;
20334;SDS011;10325;51.468;5.804;2023-04-06T12:19:15;4.03;;;2.67;;
20334;SDS011;10325;51.468;5.804;2023-04-06T12:21:44;2.97;;;2.57;;
20334;SDS011;10325;51.468;5.804;2023-04-06T12:24:14;2.63;;;2.37;;
20334;SDS011;10325;51.468;5.804;2023-04-06T12:26:45;3.10;;;2.37;;
20334;SDS011;10325;51.468;5.804;2023-04-06T12:29:25;3.50;;;2.73;;
20334;SDS011;10325;51.468;5.804;2023-04-06T12:31:55;3.27;;;2.50;;
20334;SDS011;10325;51.468;5.804;2023-04-06T12:34:25;3.27;;;2.40;;
20334;SDS011;10325;51.468;5.804;2023-04-06T12:36:55;3.40;;;2.77;;
20334;SDS011;10325;51.468;5.804;2023-04-06T12:39:27;3.07;;;2.60;;
20334;SDS011;10325;51.468;5.804;2023-04-06T12:41:55;2.40;;;2.13;;
20334;SDS011;10325;51.468;5.804;2023-04-06T12:44:28;2.80;;;2.50;;
20334;SDS011;10325;51.468;5.804;2023-04-06T12:46:59;4.03;;;3.10;;
20334;SDS011;10325;51.468;5.804;2023-04-06T12:49:31;3.13;;;2.57;;
20334;SDS011;10325;51.468;5.804;2023-04-06T12:52:01;4.40;;;3.07;;
20334;SDS011;10325;51.468;5.804;2023-04-06T12:54:32;4.10;;;3.03;;
20334;SDS011;10325;51.468;5.804;2023-04-06T12:57:02;2.20;;;2.00;;
20334;SDS011;10325;51.468;5.804;2023-04-06T12:59:33;3.80;;;2.70;;
20334;SDS011;10325;51.468;5.804;2023-04-06T13:02:03;3.43;;;2.80;;
20334;SDS011;10325;51.468;5.804;2023-04-06T13:04:34;3.93;;;2.50;;
20334;SDS011;10325;51.468;5.804;2023-04-06T13:07:07;3.37;;;2.80;;
20334;SDS011;10325;51.468;5.804;2023-04-06T13:09:38;3.20;;;2.77;;
20334;SDS011;10325;51.468;5.804;2023-04-06T13:12:10;4.33;;;2.80;;
20334;SDS011;10325;51.468;5.804;2023-04-06T13:14:39;3.27;;;2.90;;
20334;SDS011;10325;51.468;5.804;2023-04-06T13:17:11;3.20;;;2.50;;
20334;SDS011;10325;51.468;5.804;2023-04-06T13:19:41;3.17;;;2.83;;
20334;SDS011;10325;51.468;5.804;2023-04-06T13:22:13;3.30;;;3.00;;
20334;SDS011;10325;51.468;5.804;2023-04-06T13:24:43;3.73;;;2.90;;
20334;SDS011;10325;51.468;5.804;2023-04-06T13:27:15;2.90;;;2.60;;
20334;SDS011;10325;51.468;5.804;2023-04-06T13:29:46;3.70;;;2.97;;
20334;SDS011;10325;51.468;5.804;2023-04-06T13:32:15;3.17;;;2.87;;
20334;SDS011;10325;51.468;5.804;2023-04-06T13:34:45;3.20;;;2.83;;
20334;SDS011;10325;51.468;5.804;2023-04-06T13:37:18;3.67;;;2.60;;
20334;SDS011;10325;51.468;5.804;2023-04-06T13:39:47;3.20;;;2.90;;
20334;SDS011;10325;51.468;5.804;2023-04-06T13:42:19;3.33;;;3.00;;
20334;SDS011;10325;51.468;5.804;2023-04-06T13:44:55;3.23;;;2.60;;
20334;SDS011;10325;51.468;5.804;2023-04-06T13:47:23;6.03;;;3.40;;
20334;SDS011;10325;51.468;5.804;2023-04-06T13:49:55;3.30;;;2.83;;
20334;SDS011;10325;51.468;5.804;2023-04-06T13:52:27;2.83;;;2.53;;
20334;SDS011;10325;51.468;5.804;2023-04-06T13:54:57;3.53;;;3.00;;
20334;SDS011;10325;51.468;5.804;2023-04-06T13:57:27;3.53;;;2.53;;
20334;SDS011;10325;51.468;5.804;2023-04-06T14:00:00;3.23;;;2.80;;
20334;SDS011;10325;51.468;5.804;2023-04-06T14:02:34;3.40;;;2.73;;
20334;SDS011;10325;51.468;5.804;2023-04-06T14:05:09;3.67;;;2.83;;
20334;SDS011;10325;51.468;5.804;2023-04-06T14:07:42;3.83;;;2.67;;
20334;SDS011;10325;51.468;5.804;2023-04-06T14:10:22;3.53;;;2.70;;
20334;SDS011;10325;51.468;5.804;2023-04-06T14:12:50;4.10;;;2.60;;
20334;SDS011;10325;51.468;5.804;2023-04-06T14:15:33;2.43;;;2.20;;
20334;SDS011;10325;51.468;5.804;2023-04-06T14:18:05;2.87;;;2.57;;
20334;SDS011;10325;51.468;5.804;2023-04-06T14:20:36;3.27;;;2.50;;
20334;SDS011;10325;51.468;5.804;2023-04-06T14:23:06;3.93;;;2.60;;
20334;SDS011;10325;51.468;5.804;2023-04-06T14:25:42;3.80;;;2.10;;
20334;SDS011;10325;51.468;5.804;2023-04-06T14:28:12;3.33;;;2.23;;
20334;SDS011;10325;51.468;5.804;2023-04-06T14:30:42;2.47;;;2.20;;
20334;SDS011;10325;51.468;5.804;2023-04-06T14:33:12;3.03;;;2.37;;
20334;SDS011;10325;51.468;5.804;2023-04-06T14:35:43;3.03;;;2.30;;
20334;SDS011;10325;51.468;5.804;2023-04-06T14:38:16;3.40;;;2.20;;
20334;SDS011;10325;51.468;5.804;2023-04-06T14:40:43;3.10;;;2.40;;
20334;SDS011;10325;51.468;5.804;2023-04-06T14:43:13;3.73;;;2.47;;
20334;SDS011;10325;51.468;5.804;2023-04-06T14:45:45;3.43;;;2.63;;
20334;SDS011;10325;51.468;5.804;2023-04-06T14:48:15;3.90;;;2.67;;
20334;SDS011;10325;51.468;5.804;2023-04-06T14:50:55;3.90;;;2.83;;
20334;SDS011;10325;51.468;5.804;2023-04-06T14:53:25;2.47;;;2.27;;
20334;SDS011;10325;51.468;5.804;2023-04-06T14:55:56;3.43;;;2.50;;
20334;SDS011;10325;51.468;5.804;2023-04-06T14:58:27;2.77;;;2.20;;
20334;SDS011;10325;51.468;5.804;2023-04-06T15:00:59;5.63;;;3.10;;
20334;SDS011;10325;51.468;5.804;2023-04-06T15:03:32;5.17;;;2.23;;
20334;SDS011;10325;51.468;5.804;2023-04-06T15:06:03;3.00;;;2.70;;
20334;SDS011;10325;51.468;5.804;2023-04-06T15:08:35;3.20;;;2.90;;
20334;SDS011;10325;51.468;5.804;2023-04-06T15:11:07;4.00;;;2.40;;
20334;SDS011;10325;51.468;5.804;2023-04-06T15:13:36;3.00;;;2.73;;
20334;SDS011;10325;51.468;5.804;2023-04-06T15:16:06;5.00;;;2.73;;